Time;durP1;ratioP1;P1;durP2;ratioP2;P2;SDS_P1;SDS_P2;PMS_P1;PMS_P2;Temp;Humidity;BMP_temperature;BMP_pressure;BME280_temperature;BME280_humidity;BME280_pressure;Samples;Min_cycle;Max_cycle;Signal;HPM_P1;HPM_P2
2023/08/24 07:23:38;;;;;;;13.55;11.70;;;;;;;-145.79;75.81;76690.56;5359537;27;20391;-68
2023/08/24 07:26:10;;;;;;;12.57;11.38;;;;;;;-145.79;75.64;76682.09;5358281;27;20039;-67
2023/08/24 07:28:41;;;;;;;13.10;11.70;;;;;;;-145.79;74.94;76682.09;5355390;27;20150;-67
2023/08/24 07:31:13;;;;;;;14.07;12.63;;;;;;;-145.79;75.19;76665.16;5354896;27;20037;-66
2023/08/24 07:33:44;;;;;;;12.55;11.45;;;;;;;-145.79;74.33;76652.44;5354594;27;20026;-67
2023/08/24 07:36:15;;;;;;;33.58;30.02;;;;;;;-145.79;74.28;76631.22;5352332;27;20110;-67
2023/08/24 07:38:47;;;;;;;39.15;35.35;;;;;;;-145.79;74.08;76624.88;5351588;27;20023;-67
2023/08/24 07:41:19;;;;;;;13.73;12.35;;;;;;;-145.79;73.43;76618.53;5351416;27;20485;-67
2023/08/24 07:43:50;;;;;;;13.93;11.27;;;;;;;-145.79;73.28;76610.03;5350985;27;20098;-68
2023/08/24 07:46:22;;;;;;;12.40;10.80;;;;;;;-145.79;72.38;76597.31;5353911;27;20026;-66
2023/08/24 07:48:54;;;;;;;13.50;11.15;;;;;;;-145.79;72.43;76595.22;5350070;27;20077;-67
2023/08/24 07:51:26;;;;;;;15.85;10.55;;;;;;;-145.79;72.34;76578.25;5352620;27;20039;-67
2023/08/24 07:53:58;;;;;;;12.40;10.88;;;;;;;-145.79;72.32;76584.59;5354032;27;20448;-67
2023/08/24 07:56:29;;;;;;;17.88;12.50;;;;;;;-145.79;72.00;76571.91;5352599;27;20031;-66
2023/08/24 07:59:00;;;;;;;11.07;9.90;;;;;;;-145.79;71.19;76565.53;5339324;27;20020;-67
2023/08/24 08:01:32;;;;;;;11.05;10.02;;;;;;;-145.79;70.79;76563.41;5340996;27;20379;-67
2023/08/24 08:04:04;;;;;;;12.20;9.90;;;;;;;-145.79;70.71;76550.69;5341173;27;20042;-67
2023/08/24 08:06:35;;;;;;;11.00;9.73;;;;;;;-145.79;70.70;76535.88;5343919;27;20053;-66
2023/08/24 08:09:06;;;;;;;10.73;9.10;;;;;;;-145.79;70.25;76538.00;5342731;27;20022;-69
2023/08/24 08:11:38;;;;;;;10.75;9.38;;;;;;;-145.79;69.97;76523.16;5344924;27;20106;-67
2023/08/24 08:14:09;;;;;;;13.45;9.75;;;;;;;-145.79;68.74;76525.28;5345636;27;20080;-67
2023/08/24 08:16:41;;;;;;;11.23;9.52;;;;;;;-145.79;68.15;76521.03;5342417;27;20034;-67
2023/08/24 08:19:12;;;;;;;11.40;9.57;;;;;;;-145.79;67.95;76499.84;5347947;27;20080;-66
2023/08/24 08:21:43;;;;;;;12.18;9.10;;;;;;;-145.79;68.54;76487.13;5346011;27;20176;-67
2023/08/24 08:24:15;;;;;;;9.52;7.90;;;;;;;-145.79;68.60;76465.94;5350546;27;20034;-67
2023/08/24 08:26:46;;;;;;;13.95;8.88;;;;;;;-145.79;68.94;76457.47;5353494;27;20031;-66
2023/08/24 08:29:17;;;;;;;10.18;8.93;;;;;;;-145.79;68.63;76438.38;5349191;27;20359;-67
2023/08/24 08:31:48;;;;;;;12.80;9.52;;;;;;;-145.79;68.71;76451.09;5350021;27;20028;-67
2023/08/24 08:34:20;;;;;;;16.45;10.05;;;;;;;-145.79;67.96;76446.88;5342540;27;20114;-67
2023/08/24 08:36:51;;;;;;;10.18;8.55;;;;;;;-145.79;67.67;76429.91;5333769;27;20026;-65
2023/08/24 08:39:23;;;;;;;11.95;9.38;;;;;;;-145.79;67.39;76419.31;5336465;27;20156;-66
2023/08/24 08:41:55;;;;;;;12.52;8.90;;;;;;;-145.79;67.02;76402.38;5335350;27;20037;-66
2023/08/24 08:44:31;;;;;;;10.80;8.85;;;;;;;-145.79;66.30;76398.13;5338095;27;20437;-68
2023/08/24 08:47:02;;;;;;;9.20;8.30;;;;;;;-145.79;66.20;76387.53;5339535;27;20111;-68
2023/08/24 08:49:35;;;;;;;10.95;9.15;;;;;;;-145.79;66.59;76372.69;5335175;27;20030;-67
2023/08/24 08:52:07;;;;;;;10.48;9.48;;;;;;;-145.79;66.89;76364.22;5333594;27;20167;-68
2023/08/24 08:54:38;;;;;;;10.95;8.85;;;;;;;-145.79;66.85;76355.75;5336966;27;20058;-68
2023/08/24 08:57:10;;;;;;;14.30;10.55;;;;;;;-145.79;66.93;76338.78;5334330;27;20472;-67
2023/08/24 08:59:41;;;;;;;24.02;21.83;;;;;;;-145.79;66.69;76328.19;5338302;27;20023;-67
2023/08/24 09:02:16;;;;;;;11.73;9.82;;;;;;;-145.79;66.58;76313.34;5331139;27;20043;-67
2023/08/24 09:04:50;;;;;;;12.13;9.10;;;;;;;-145.79;65.96;76302.75;5337087;27;20050;-66
2023/08/24 09:07:21;;;;;;;9.88;8.25;;;;;;;-145.79;66.20;76292.16;5338962;27;20062;-67
2023/08/24 09:09:53;;;;;;;10.82;9.02;;;;;;;-145.79;66.73;76270.97;5334649;27;20051;-68
2023/08/24 09:12:24;;;;;;;14.63;10.73;;;;;;;-145.79;66.71;76270.97;5334270;27;20026;-67
2023/08/24 09:14:56;;;;;;;12.02;9.48;;;;;;;-145.79;66.26;76262.50;5337626;27;20023;-68
2023/08/24 09:17:27;;;;;;;14.25;9.57;;;;;;;-145.79;65.66;76251.91;5330239;27;20094;-67
2023/08/24 09:20:00;;;;;;;9.48;8.35;;;;;;;-145.79;66.16;76237.06;5339683;27;20032;-67
2023/08/24 09:22:36;;;;;;;11.25;10.05;;;;;;;-145.79;65.28;76232.84;5334055;27;20097;-67
2023/08/24 09:25:10;;;;;;;10.65;9.40;;;;;;;-145.79;65.18;76226.47;5334445;27;20024;-68
2023/08/24 09:27:42;;;;;;;11.02;8.75;;;;;;;-145.79;65.29;76215.88;5330245;27;20107;-68
2023/08/24 09:30:15;;;;;;;21.88;19.88;;;;;;;-145.79;65.99;76209.53;5337257;27;20489;-67
2023/08/24 09:32:46;;;;;;;11.10;9.85;;;;;;;-145.79;66.22;76198.94;5332063;27;20107;-67
2023/08/24 09:35:20;;;;;;;9.65;8.68;;;;;;;-145.79;65.58;76198.94;5329717;27;20098;-67
2023/08/24 09:37:52;;;;;;;9.02;8.13;;;;;;;-145.79;65.84;76194.69;5337461;27;20034;-68
2023/08/24 09:40:28;;;;;;;11.05;8.32;;;;;;;-145.79;66.20;76201.06;5331301;27;20031;-67
2023/08/24 09:43:01;;;;;;;10.20;8.00;;;;;;;-145.79;65.96;76213.75;5331782;27;20135;-67
2023/08/24 09:45:32;;;;;;;9.05;8.13;;;;;;;-145.79;65.15;76213.75;5315619;27;20038;-67
2023/08/24 09:48:06;;;;;;;10.38;8.52;;;;;;;-145.79;64.68;76205.28;5330615;27;20420;-67
2023/08/24 09:50:37;;;;;;;10.10;7.60;;;;;;;-145.79;64.96;76198.94;5323119;27;20020;-65
2023/08/24 09:53:17;;;;;;;9.90;7.32;;;;;;;-145.79;65.09;76194.69;5330456;27;20030;-68
2023/08/24 09:55:59;;;;;;;9.20;7.97;;;;;;;-145.79;64.82;76201.06;5312163;27;20034;-67
2023/08/24 09:58:31;;;;;;;10.98;7.90;;;;;;;-145.79;65.50;76198.94;5327293;27;20393;-67
2023/08/24 10:01:03;;;;;;;16.73;15.02;;;;;;;-145.79;65.69;76194.69;5325142;27;20023;-67
2023/08/24 10:03:37;;;;;;;9.90;8.77;;;;;;;-145.79;65.93;76190.47;5334877;27;20043;-68
2023/08/24 10:06:10;;;;;;;8.85;7.47;;;;;;;-145.79;65.97;76194.69;5330748;27;20103;-68
2023/08/24 10:08:47;;;;;;;10.13;7.75;;;;;;;-145.79;65.96;76207.41;5334941;27;20027;-68
2023/08/24 10:11:25;;;;;;;10.10;8.02;;;;;;;-145.79;66.58;76207.41;5327096;27;20470;-68
2023/08/24 10:14:02;;;;;;;8.40;7.55;;;;;;;-145.79;66.11;76215.88;5336626;27;20019;-67
2023/08/24 10:16:35;;;;;;;12.02;7.45;;;;;;;-145.79;66.27;76207.41;5336114;27;20073;-68
2023/08/24 10:19:07;;;;;;;9.85;6.88;;;;;;;-145.79;65.88;76209.53;5326015;27;20030;-68
2023/08/24 10:21:39;;;;;;;8.75;6.32;;;;;;;-145.79;64.58;76207.41;5332043;27;20040;-68
2023/08/24 10:24:12;;;;;;;9.02;5.47;;;;;;;-145.79;64.44;76207.41;5329263;27;20028;-66
2023/08/24 10:26:44;;;;;;;7.85;5.35;;;;;;;-145.79;64.37;76207.41;5337597;27;20031;-68
2023/08/24 10:29:16;;;;;;;9.48;6.60;;;;;;;-145.79;64.22;76207.41;5323660;27;20089;-67
2023/08/24 10:31:49;;;;;;;6.38;5.78;;;;;;;-145.79;63.91;76226.47;5333287;27;20142;-67
2023/08/24 10:34:21;;;;;;;6.70;5.20;;;;;;;-145.79;63.91;76230.72;5333039;27;20027;-67
2023/08/24 10:36:53;;;;;;;8.25;5.22;;;;;;;-145.79;63.95;76232.84;5323351;27;20570;-68
2023/08/24 10:39:28;;;;;;;23.67;21.65;;;;;;;-145.79;64.37;76241.31;5336580;27;20027;-69
2023/08/24 10:42:00;;;;;;;8.23;4.55;;;;;;;-145.79;64.38;76245.56;5321781;27;20028;-67
2023/08/24 10:44:36;;;;;;;7.70;4.90;;;;;;;-145.79;64.98;76262.50;5335882;27;20386;-68
2023/08/24 10:47:15;;;;;;;12.45;5.50;;;;;;;-145.79;65.55;76270.97;5331140;27;20027;-67
2023/08/24 10:49:56;;;;;;;9.13;5.78;;;;;;;-145.79;65.53;76262.50;5327764;27;20027;-68
2023/08/24 10:52:30;;;;;;;11.27;6.57;;;;;;;-145.79;65.96;76275.22;5326814;27;20035;-67
2023/08/24 10:55:03;;;;;;;8.10;6.25;;;;;;;-145.79;66.28;76270.97;5326406;27;20027;-68
2023/08/24 10:57:37;;;;;;;8.43;6.95;;;;;;;-145.79;66.41;76273.09;5326762;27;20036;-67
2023/08/24 11:00:12;;;;;;;7.60;6.35;;;;;;;-145.79;67.17;76251.91;5330214;27;20027;-68
2023/08/24 11:02:51;;;;;;;12.52;6.88;;;;;;;-145.79;67.28;76245.56;5327084;27;20125;-68
2023/08/24 11:05:33;;;;;;;7.82;6.55;;;;;;;-145.79;67.36;76256.16;5321693;27;20055;-68
2023/08/24 11:08:05;;;;;;;10.52;7.30;;;;;;;-145.79;67.70;76258.25;5326410;27;20019;-67
2023/08/24 11:10:43;;;;;;;7.68;6.88;;;;;;;-145.79;68.38;76243.44;5323599;28;20024;-68
2023/08/24 11:13:16;;;;;;;8.43;7.25;;;;;;;-145.79;68.78;76237.06;5327189;27;20088;-69
2023/08/24 11:15:56;;;;;;;6.72;6.07;;;;;;;-145.79;68.44;76232.84;5335652;27;20072;-68
2023/08/24 11:18:28;;;;;;;8.68;6.88;;;;;;;-145.79;68.64;76218.00;5329614;27;20119;-69
2023/08/24 11:21:02;;;;;;;11.77;10.68;;;;;;;-145.79;68.47;76218.00;5334173;28;20031;-68
2023/08/24 11:23:34;;;;;;;8.38;7.53;;;;;;;-145.79;69.04;76213.75;5328446;28;20039;-68
2023/08/24 11:26:05;;;;;;;9.00;7.45;;;;;;;-145.79;69.05;76207.41;5333187;27;20031;-68
2023/08/24 11:28:37;;;;;;;10.07;6.95;;;;;;;-145.79;69.43;76213.75;5329748;27;20020;-73
2023/08/24 11:31:09;;;;;;;9.70;6.82;;;;;;;-145.79;71.66;76220.13;5333769;28;20485;-68
2023/08/24 11:33:41;;;;;;;10.68;7.00;;;;;;;-145.79;71.68;76226.47;5329832;28;20024;-68
2023/08/24 11:36:12;;;;;;;8.25;6.75;;;;;;;-145.79;72.38;76226.47;5326773;28;20046;-69
2023/08/24 11:38:44;;;;;;;12.93;7.15;;;;;;;-145.79;71.72;76224.38;5319371;28;20332;-68
2023/08/24 11:41:16;;;;;;;9.70;7.32;;;;;;;-145.79;72.30;76226.47;5327767;28;20024;-68
2023/08/24 11:43:50;;;;;;;8.05;6.80;;;;;;;-145.79;73.49;76211.66;5324016;28;20044;-68
2023/08/24 11:46:22;;;;;;;10.15;6.63;;;;;;;-145.79;73.52;76203.16;5334609;28;20084;-68
2023/08/24 11:48:53;;;;;;;8.52;7.72;;;;;;;-145.79;74.12;76181.97;5332033;28;20401;-68
2023/08/24 11:51:25;;;;;;;10.48;6.93;;;;;;;-145.79;74.23;76169.25;5334145;28;20030;-69
2023/08/24 11:53:56;;;;;;;34.03;30.83;;;;;;;-145.79;74.50;76167.16;5335706;28;20051;-68
2023/08/24 11:56:28;;;;;;;20.98;18.92;;;;;;;-145.79;73.82;76148.06;5333885;28;20023;-69
2023/08/24 11:59:00;;;;;;;8.80;6.85;;;;;;;-145.79;73.67;76139.59;5336183;27;20497;-68
2023/08/24 12:01:32;;;;;;;9.95;8.38;;;;;;;-145.79;73.24;76118.41;5326921;27;20031;-68
2023/08/24 12:04:04;;;;;;;8.07;6.45;;;;;;;-145.79;73.91;76107.81;5335198;27;20031;-69
2023/08/24 12:06:35;;;;;;;8.68;6.22;;;;;;;-145.79;73.51;76095.09;5320246;27;20027;-69
2023/08/24 12:09:06;;;;;;;7.10;6.35;;;;;;;-145.79;72.51;76097.22;5333768;27;20020;-70
2023/08/24 12:11:38;;;;;;;7.63;5.82;;;;;;;-145.79;71.60;76095.09;5336826;27;20035;-69
2023/08/24 12:14:17;;;;;;;7.88;5.72;;;;;;;-145.79;70.41;76071.78;5332842;27;20023;-69
2023/08/24 12:16:53;;;;;;;7.60;6.60;;;;;;;-145.79;67.95;76069.69;5327046;27;20031;-68
2023/08/24 12:19:24;;;;;;;9.23;5.78;;;;;;;-145.79;68.17;76063.31;5338404;27;20114;-69
2023/08/24 12:21:55;;;;;;;7.57;5.15;;;;;;;-145.79;67.87;76069.69;5320898;27;20127;-70
2023/08/24 12:24:27;;;;;;;8.07;5.35;;;;;;;-145.79;68.28;76078.16;5297064;28;20390;-69
2023/08/24 12:26:59;;;;;;;6.03;4.80;;;;;;;-145.79;67.68;76097.22;5295331;28;20374;-69
2023/08/24 12:29:30;;;;;;;7.15;4.82;;;;;;;-145.79;67.66;76101.47;5292193;28;20545;-68
2023/08/24 12:32:02;;;;;;;5.93;4.72;;;;;;;-145.79;67.96;76105.69;5292978;28;20062;-68
2023/08/24 12:34:33;;;;;;;7.47;5.65;;;;;;;-145.79;68.79;76107.81;5288002;28;20085;-69
2023/08/24 12:37:05;;;;;;;27.00;24.30;;;;;;;-145.79;69.60;76105.69;5282490;28;20118;-69
2023/08/24 12:39:37;;;;;;;6.10;5.38;;;;;;;-145.79;70.06;76118.41;5297749;28;20613;-68
2023/08/24 12:42:08;;;;;;;10.00;6.03;;;;;;;-145.79;70.47;76114.19;5292672;28;20046;-69
2023/08/24 12:44:40;;;;;;;7.78;5.07;;;;;;;-145.79;70.85;76109.94;5296887;28;20447;-69
2023/08/24 12:47:11;;;;;;;9.48;5.20;;;;;;;-145.79;70.35;76109.94;5295924;28;20024;-69
2023/08/24 12:49:42;;;;;;;5.53;4.93;;;;;;;-145.79;69.74;76109.94;5287650;28;20028;-69
2023/08/24 12:52:14;;;;;;;8.88;5.35;;;;;;;-145.79;69.56;76114.19;5294460;28;20143;-69
2023/08/24 12:54:45;;;;;;;8.85;5.32;;;;;;;-145.79;69.42;76109.94;5292310;28;20032;-68
2023/08/24 12:57:17;;;;;;;6.55;4.63;;;;;;;-145.79;69.53;76109.94;5284967;28;20064;-68
2023/08/24 12:59:49;;;;;;;5.72;4.63;;;;;;;-145.79;70.03;76114.19;5289897;28;20023;-68
2023/08/24 13:02:20;;;;;;;7.85;5.95;;;;;;;-145.79;70.39;76124.78;5296872;28;20387;-68
2023/08/24 13:04:51;;;;;;;8.32;5.35;;;;;;;-145.79;70.68;76112.06;5290916;28;20059;-68
2023/08/24 13:07:23;;;;;;;6.45;4.47;;;;;;;-145.79;70.52;76114.19;5292133;28;20131;-69
2023/08/24 13:09:54;;;;;;;6.95;5.20;;;;;;;-145.79;70.85;76109.94;5290505;28;20055;-68
2023/08/24 13:12:26;;;;;;;8.13;4.45;;;;;;;-145.79;71.19;76109.94;5291743;28;20099;-68
2023/08/24 13:14:57;;;;;;;7.18;4.68;;;;;;;-145.79;71.44;76114.19;5295184;28;20055;-69
2023/08/24 13:17:32;;;;;;;5.43;4.15;;;;;;;-145.79;70.51;76109.94;5295073;28;20035;-68
2023/08/24 13:20:06;;;;;;;5.82;4.30;;;;;;;-145.79;70.89;76122.66;5292487;28;20493;-68
2023/08/24 13:22:37;;;;;;;7.68;4.25;;;;;;;-145.79;71.10;76118.41;5287048;28;20121;-69
2023/08/24 13:25:09;;;;;;;7.82;3.85;;;;;;;-145.79;71.30;76124.78;5291789;28;20084;-68
2023/08/24 13:27:40;;;;;;;5.20;4.43;;;;;;;-145.79;71.65;76109.94;5291629;28;20133;-69
2023/08/24 13:30:12;;;;;;;7.28;5.25;;;;;;;-145.79;72.26;76097.22;5294093;28;20031;-69
2023/08/24 13:32:44;;;;;;;7.85;3.92;;;;;;;-145.79;70.47;76101.47;5293246;28;20218;-69
2023/08/24 13:35:15;;;;;;;6.57;3.85;;;;;;;-145.79;69.75;76088.75;5294648;28;20360;-69
2023/08/24 13:37:47;;;;;;;6.13;3.83;;;;;;;-145.79;69.17;76095.09;5295028;28;20044;-68
2023/08/24 13:40:18;;;;;;;5.80;3.65;;;;;;;-145.79;68.68;76090.88;5293362;28;20040;-68
2023/08/24 13:42:49;;;;;;;8.73;4.60;;;;;;;-145.79;68.57;76097.22;5295393;28;20028;-68
2023/08/24 13:45:21;;;;;;;6.80;4.90;;;;;;;-145.79;68.89;76101.47;5292731;28;20060;-70
2023/08/24 13:47:52;;;;;;;7.70;3.58;;;;;;;-145.79;69.20;76097.22;5291054;28;20529;-70
2023/08/24 13:50:24;;;;;;;9.13;3.40;;;;;;;-145.79;69.59;76109.94;5293052;28;20052;-70
2023/08/24 13:52:55;;;;;;;6.55;4.07;;;;;;;-145.79;70.36;76118.41;5290125;28;20031;-70
2023/08/24 13:55:27;;;;;;;7.13;4.22;;;;;;;-145.79;70.74;76112.06;5288986;28;20024;-69
2023/08/24 13:57:58;;;;;;;5.70;3.55;;;;;;;-145.79;71.23;76114.19;5291124;28;20043;-69
2023/08/24 14:00:30;;;;;;;5.82;4.00;;;;;;;-145.79;71.65;76112.06;5291945;28;20051;-69
2023/08/24 14:03:01;;;;;;;10.02;4.63;;;;;;;-145.79;71.81;76107.81;5285404;28;20120;-69
2023/08/24 14:05:32;;;;;;;5.35;3.72;;;;;;;-145.79;72.00;76105.69;5294092;28;20027;-69
2023/08/24 14:08:04;;;;;;;7.88;3.72;;;;;;;-145.79;71.84;76114.19;5285042;28;20024;-70
2023/08/24 14:10:35;;;;;;;4.40;3.30;;;;;;;-145.79;71.38;76124.78;5292540;28;20560;-69
2023/08/24 14:13:06;;;;;;;7.10;4.82;;;;;;;-145.79;71.09;76135.38;5290933;28;20119;-69
2023/08/24 14:15:38;;;;;;;4.07;3.10;;;;;;;-145.79;70.95;76129.00;5289604;28;20036;-70
2023/08/24 14:18:12;;;;;;;6.90;3.67;;;;;;;-145.79;71.12;76122.66;5294611;28;20368;-70
2023/08/24 14:20:43;;;;;;;4.65;3.72;;;;;;;-145.79;71.25;76126.88;5293491;28;20028;-69
2023/08/24 14:23:15;;;;;;;3.42;3.10;;;;;;;-145.79;71.17;76129.00;5326779;27;20051;-69
2023/08/24 14:25:48;;;;;;;5.00;2.97;;;;;;;-145.79;71.07;76118.41;5332961;27;20024;-69
2023/08/24 14:28:21;;;;;;;4.57;3.13;;;;;;;-145.79;71.46;76116.28;5325069;27;20042;-69
2023/08/24 14:30:52;;;;;;;5.07;3.10;;;;;;;-145.79;71.81;76107.81;5330505;27;20034;-70
2023/08/24 14:33:24;;;;;;;4.25;3.13;;;;;;;-145.79;71.93;76103.56;5336690;27;20494;-69
2023/08/24 14:35:55;;;;;;;5.80;3.00;;;;;;;-145.79;72.12;76097.22;5331858;27;20063;-69
2023/08/24 14:38:26;;;;;;;5.15;3.53;;;;;;;-145.79;72.40;76095.09;5334168;27;20065;-68
2023/08/24 14:41:00;;;;;;;6.10;3.30;;;;;;;-145.79;71.39;76112.06;5335381;27;20512;-69
2023/08/24 14:43:33;;;;;;;4.20;3.28;;;;;;;-145.79;71.40;76109.94;5330794;27;20039;-69
2023/08/24 14:46:05;;;;;;;5.25;3.42;;;;;;;-145.79;71.88;76118.41;5330555;27;20035;-68
2023/08/24 14:48:42;;;;;;;3.63;3.13;;;;;;;-145.79;72.35;76124.78;5329098;27;20058;-70
2023/08/24 14:51:14;;;;;;;4.65;2.95;;;;;;;-145.79;72.48;76126.88;5330310;27;20440;-70
2023/08/24 14:53:45;;;;;;;5.90;3.20;;;;;;;-145.79;72.67;76131.13;5332518;27;20036;-69
2023/08/24 14:56:16;;;;;;;5.03;3.10;;;;;;;-145.79;72.31;76131.13;5330027;27;20026;-68
2023/08/24 14:58:48;;;;;;;4.63;2.55;;;;;;;-145.79;72.26;76148.06;5330782;27;20363;-69
2023/08/24 15:01:19;;;;;;;3.97;2.78;;;;;;;-145.79;72.29;76150.19;5330901;27;20023;-69
2023/08/24 15:03:50;;;;;;;4.43;3.35;;;;;;;-145.79;72.05;76148.06;5332739;27;20470;-70
2023/08/24 15:06:22;;;;;;;5.68;2.88;;;;;;;-145.79;72.55;76143.84;5335801;27;20030;-69
2023/08/24 15:08:54;;;;;;;4.13;2.55;;;;;;;-145.79;72.59;76141.72;5332500;27;20057;-71
2023/08/24 15:11:25;;;;;;;5.45;3.30;;;;;;;-145.79;73.05;76148.06;5329699;27;20046;-68
2023/08/24 15:13:56;;;;;;;3.67;2.72;;;;;;;-145.79;72.56;76139.59;5335267;27;20042;-69
2023/08/24 15:16:27;;;;;;;4.78;3.17;;;;;;;-145.79;72.60;76131.13;5332888;27;20046;-69
2023/08/24 15:18:59;;;;;;;11.23;9.30;;;;;;;-145.79;72.41;76126.88;5333391;27;20027;-69
2023/08/24 15:21:30;;;;;;;4.72;2.70;;;;;;;-145.79;72.24;76124.78;5333554;27;20088;-69
2023/08/24 15:24:01;;;;;;;5.05;2.75;;;;;;;-145.79;71.98;76124.78;5330255;28;20024;-69
2023/08/24 15:26:34;;;;;;;3.72;2.88;;;;;;;-145.79;72.61;76122.66;5336218;28;20023;-68
2023/08/24 15:29:15;;;;;;;2.60;2.10;;;;;;;-145.79;72.41;76112.06;5333096;28;20079;-69
2023/08/24 15:31:46;;;;;;;3.67;2.80;;;;;;;-145.79;72.75;76114.19;5330869;28;20046;-70
2023/08/24 15:34:18;;;;;;;4.32;2.53;;;;;;;-145.79;72.48;76122.66;5335149;28;20020;-68
2023/08/24 15:36:49;;;;;;;4.00;2.50;;;;;;;-145.79;72.22;76118.41;5333903;27;20141;-68
2023/08/24 15:39:20;;;;;;;3.53;2.20;;;;;;;-145.79;72.42;76124.78;5336890;28;20490;-69
2023/08/24 15:41:51;;;;;;;4.72;2.17;;;;;;;-145.79;72.24;76129.00;5326160;28;20084;-69
2023/08/24 15:44:23;;;;;;;2.38;2.03;;;;;;;-145.79;72.39;76133.25;5336938;27;20781;-67
2023/08/24 15:46:54;;;;;;;3.95;2.30;;;;;;;-145.79;72.08;76124.78;5339877;27;20015;-69
2023/08/24 15:49:26;;;;;;;4.43;2.25;;;;;;;-145.79;72.08;76126.88;5331762;27;20497;-70
2023/08/24 15:51:57;;;;;;;3.97;2.03;;;;;;;-145.79;72.15;76116.28;5334524;27;20023;-69
2023/08/24 15:54:28;;;;;;;4.65;2.00;;;;;;;-145.79;71.89;76109.94;5337455;27;20331;-68
2023/08/24 15:57:00;;;;;;;4.97;2.10;;;;;;;-145.79;71.97;76097.22;5340994;27;20023;-68
2023/08/24 15:59:33;;;;;;;6.57;2.25;;;;;;;-145.79;71.92;76086.63;5338187;27;20084;-68
2023/08/24 16:02:05;;;;;;;4.68;2.60;;;;;;;-145.79;71.96;76076.03;5336987;27;20047;-69
2023/08/24 16:04:36;;;;;;;3.97;2.40;;;;;;;-145.79;71.94;76069.69;5338676;27;20030;-68
2023/08/24 16:07:08;;;;;;;4.15;2.20;;;;;;;-145.79;71.32;76073.91;5340131;27;20027;-67
2023/08/24 16:09:39;;;;;;;4.18;2.33;;;;;;;-145.79;71.93;76076.03;5339547;27;20024;-68
2023/08/24 16:12:10;;;;;;;4.35;2.17;;;;;;;-145.79;71.44;76067.56;5325430;27;20036;-67
2023/08/24 16:14:42;;;;;;;5.93;3.33;;;;;;;-145.79;71.57;76061.19;5336460;27;20028;-68
2023/08/24 16:17:13;;;;;;;1.98;1.75;;;;;;;-145.79;71.03;76059.09;5341093;27;20019;-67
2023/08/24 16:19:44;;;;;;;3.85;2.80;;;;;;;-145.79;70.76;76065.44;5339761;27;20027;-68
2023/08/24 16:22:16;;;;;;;4.18;2.03;;;;;;;-145.79;70.54;76054.84;5336078;27;20064;-68
2023/08/24 16:24:47;;;;;;;3.40;2.13;;;;;;;-145.79;70.38;76063.31;5337173;27;20035;-68
2023/08/24 16:27:18;;;;;;;4.13;2.50;;;;;;;-145.79;70.26;76059.09;5334735;27;20091;-67
2023/08/24 16:29:49;;;;;;;2.30;1.80;;;;;;;-145.79;70.21;76046.38;5333982;27;20027;-68
2023/08/24 16:32:21;;;;;;;3.33;2.17;;;;;;;-145.79;69.47;76063.31;5340635;27;20031;-67
2023/08/24 16:34:53;;;;;;;2.60;1.75;;;;;;;-145.79;68.42;76069.69;5338513;27;20027;-67
2023/08/24 16:37:24;;;;;;;3.13;1.65;;;;;;;-145.79;68.60;76071.78;5336932;27;20031;-67
2023/08/24 16:39:55;;;;;;;2.47;1.63;;;;;;;-145.79;69.06;76059.09;5337909;27;20031;-69
2023/08/24 16:42:27;;;;;;;4.63;2.13;;;;;;;-145.79;68.85;76067.56;5334557;27;20032;-68
2023/08/24 16:44:58;;;;;;;3.97;2.13;;;;;;;-145.79;68.93;76054.84;5336481;27;20015;-68
2023/08/24 16:47:30;;;;;;;2.85;1.70;;;;;;;-145.79;69.23;76052.72;5340205;27;20052;-68
2023/08/24 16:50:02;;;;;;;4.25;1.60;;;;;;;-145.79;69.17;76033.66;5336343;27;20112;-68
2023/08/24 16:52:34;;;;;;;2.70;1.70;;;;;;;-145.79;69.79;76046.38;5339982;27;20485;-69
2023/08/24 16:55:05;;;;;;;2.85;1.50;;;;;;;-145.79;69.42;76046.38;5355653;27;20019;-68
